createdAt,value
2023-01-25T00:00:31.197Z,103437.06
2023-01-25T00:05:34.077Z,103422.50
2023-01-25T00:10:39.256Z,103411.84
2023-01-25T00:15:41.981Z,103419.75
2023-01-25T00:20:44.736Z,103413.94
2023-01-25T00:25:48.980Z,103399.44
2023-01-25T00:30:52.062Z,103401.25
2023-01-25T00:35:57.924Z,103401.34
2023-01-25T00:41:02.125Z,103399.13
2023-01-25T00:46:05.085Z,103389.59
2023-01-25T00:51:08.121Z,103389.13
2023-01-25T00:56:12.285Z,103376.72
2023-01-25T01:01:16.238Z,103370.53
2023-01-25T01:06:19.097Z,103368.63
2023-01-25T01:11:23.276Z,103378.88
2023-01-25T01:16:27.628Z,103368.91
2023-01-25T01:21:30.345Z,103365.66
2023-01-25T01:26:34.635Z,103379.03
2023-01-25T01:31:37.761Z,103370.94
2023-01-25T01:36:57.093Z,103368.13
2023-01-25T01:42:01.397Z,103368.06
2023-01-25T01:47:04.622Z,103364.13
2023-01-25T01:52:14.193Z,103358.06
2023-01-25T01:57:22.728Z,103343.59
2023-01-25T02:02:27.561Z,103351.00
2023-01-25T02:07:35.116Z,103344.28
2023-01-25T02:12:40.273Z,103338.44
2023-01-25T02:17:44.006Z,103347.50
2023-01-25T02:22:55.636Z,103338.19
2023-01-25T02:28:04.865Z,103336.34
2023-01-25T02:33:07.658Z,103340.84
2023-01-25T02:38:14.189Z,103327.69
2023-01-25T02:43:19.424Z,103330.47
2023-01-25T02:48:22.297Z,103310.75
2023-01-25T02:53:27.487Z,103313.13
2023-01-25T02:58:31.661Z,103307.03
2023-01-25T03:03:35.495Z,103296.28
2023-01-25T03:08:38.554Z,103303.47
2023-01-25T03:13:42.922Z,103297.44
2023-01-25T03:18:46.105Z,103290.72
2023-01-25T03:23:55.289Z,103284.94
2023-01-25T03:29:01.348Z,103274.72
2023-01-25T03:34:04.468Z,103265.72
2023-01-25T03:39:11.626Z,103267.88
2023-01-25T03:44:19.056Z,103264.31
2023-01-25T03:49:23.180Z,103260.25
2023-01-25T03:54:27.327Z,103262.16
2023-01-25T03:59:31.629Z,103256.91
2023-01-25T04:04:35.132Z,103256.69
2023-01-25T04:09:38.672Z,103252.06
2023-01-25T04:14:45.130Z,103256.22
2023-01-25T04:19:55.202Z,103241.34
2023-01-25T04:25:02.715Z,103244.50
2023-01-25T04:30:09.359Z,103236.38
2023-01-25T04:35:13.346Z,103236.38
2023-01-25T04:40:17.133Z,103230.19
2023-01-25T04:45:23.421Z,103222.97
2023-01-25T04:50:26.643Z,103226.34
2023-01-25T04:55:32.174Z,103213.75
2023-01-25T05:00:37.987Z,103213.81
2023-01-25T05:05:46.277Z,103210.78
2023-01-25T05:10:50.852Z,103200.63
2023-01-25T05:16:13.402Z,103196.38
2023-01-25T05:21:30.433Z,103198.34
2023-01-25T05:26:50.891Z,103188.63
2023-01-25T05:31:55.589Z,103188.34
2023-01-25T05:36:58.867Z,103182.88
2023-01-25T05:42:02.124Z,103174.44
2023-01-25T05:47:06.495Z,103171.66
2023-01-25T05:52:13.689Z,103171.22
2023-01-25T05:57:17.530Z,103162.78
2023-01-25T06:02:22.456Z,103160.00
2023-01-25T06:07:25.616Z,103144.13
2023-01-25T06:12:30.807Z,103147.69
2023-01-25T06:17:36.493Z,103148.28
2023-01-25T06:23:02.920Z,103157.56
2023-01-25T06:28:06.450Z,103157.06
2023-01-25T06:33:10.634Z,103168.00
2023-01-25T06:38:13.517Z,103156.00
2023-01-25T06:43:16.385Z,103158.84
2023-01-25T06:48:20.536Z,103161.03
2023-01-25T06:53:23.472Z,103156.03
2023-01-25T06:58:27.017Z,103165.34
2023-01-25T07:03:31.665Z,103158.94
2023-01-25T07:08:35.672Z,103149.75
2023-01-25T07:13:38.499Z,103145.16
2023-01-25T07:18:43.174Z,103146.34
2023-01-25T07:23:46.351Z,103136.63
2023-01-25T07:28:50.138Z,103129.06
2023-01-25T07:33:56.002Z,103126.41
2023-01-25T07:39:00.215Z,103124.56
2023-01-25T07:44:03.081Z,103119.84
2023-01-25T07:49:21.231Z,103114.00
2023-01-25T07:54:24.018Z,103112.66
2023-01-25T07:59:27.320Z,103106.78
2023-01-25T08:04:31.651Z,103101.53
2023-01-25T08:09:34.440Z,103089.94
2023-01-25T08:14:38.368Z,103071.84
2023-01-25T08:19:42.437Z,103085.47
2023-01-25T08:24:45.222Z,103083.16
2023-01-25T08:29:48.024Z,103078.75
2023-01-25T08:34:52.100Z,103072.66
2023-01-25T08:39:57.086Z,103066.00
2023-01-25T08:44:59.833Z,103059.16
2023-01-25T08:50:04.677Z,103044.72
2023-01-25T08:55:08.418Z,103028.38
2023-01-25T09:00:13.494Z,103028.72
2023-01-25T09:05:17.741Z,103034.19
2023-01-25T09:10:20.992Z,103029.06
2023-01-25T09:15:23.843Z,103024.75
2023-01-25T09:20:28.723Z,103010.19
2023-01-25T09:25:32.208Z,103015.75
2023-01-25T09:30:46.251Z,103007.16
2023-01-25T09:36:00.671Z,103007.28
2023-01-25T09:41:25.173Z,103007.28
2023-01-25T09:46:40.807Z,102998.66
2023-01-25T09:52:01.663Z,102997.53
2023-01-25T09:57:05.257Z,102992.13
2023-01-25T10:02:27.086Z,102975.72
2023-01-25T10:07:39.905Z,102971.63
2023-01-25T10:12:42.774Z,102980.59
2023-01-25T10:17:46.120Z,102965.81
2023-01-25T10:22:53.428Z,102967.59
2023-01-25T10:28:10.037Z,102960.16
2023-01-25T10:33:18.671Z,102947.06
2023-01-25T10:38:29.251Z,102934.19
2023-01-25T10:43:32.159Z,102941.44
2023-01-25T10:48:37.445Z,102923.56
2023-01-25T10:53:43.357Z,102911.19
2023-01-25T10:58:48.857Z,102916.44
2023-01-25T11:03:51.584Z,102908.84
2023-01-25T11:08:55.681Z,102888.63
2023-01-25T11:13:58.926Z,102877.09
2023-01-25T11:19:03.687Z,102862.41
2023-01-25T11:24:18.978Z,102849.00
2023-01-25T11:29:24.334Z,102832.66
2023-01-25T11:34:31.034Z,102831.25
2023-01-25T11:39:47.769Z,102819.06
2023-01-25T11:45:16.819Z,102807.16
2023-01-25T11:50:22.696Z,102797.25
2023-01-25T11:55:30.208Z,102784.66
2023-01-25T12:00:45.900Z,102779.19
2023-01-25T12:06:01.647Z,102769.13
2023-01-25T12:11:13.319Z,102748.69
2023-01-25T12:16:31.036Z,102734.19
2023-01-25T12:21:47.146Z,102732.44
2023-01-25T12:27:01.509Z,102719.69
2023-01-25T12:32:09.111Z,102710.50
2023-01-25T12:37:18.383Z,102698.97
2023-01-25T12:42:26.966Z,102673.13
2023-01-25T12:47:36.189Z,102660.34
2023-01-25T12:52:46.987Z,102662.53
2023-01-25T12:58:00.110Z,102667.78
2023-01-25T13:03:12.973Z,102655.69
2023-01-25T13:08:31.680Z,102643.94
2023-01-25T13:13:36.493Z,102640.75
2023-01-25T13:18:42.444Z,102622.38
2023-01-25T13:23:47.833Z,102615.09
2023-01-25T13:28:53.012Z,102621.06
2023-01-25T13:33:55.889Z,102611.22
2023-01-25T13:38:58.607Z,102597.72
2023-01-25T13:44:33.189Z,102587.47
2023-01-25T13:49:44.427Z,102568.41
2023-01-25T13:54:48.857Z,102576.34
2023-01-25T14:00:10.109Z,102579.03
2023-01-25T14:05:20.942Z,102568.22
2023-01-25T14:10:27.740Z,102562.94
2023-01-25T14:15:33.836Z,102567.38
2023-01-25T14:20:36.602Z,102559.53
2023-01-25T14:25:41.626Z,102560.41
2023-01-25T14:30:51.047Z,102559.25
2023-01-25T14:36:00.029Z,102548.06
2023-01-25T14:41:13.563Z,102535.69
2023-01-25T14:46:36.460Z,102543.13
2023-01-25T14:51:44.498Z,102537.41
2023-01-25T14:56:49.356Z,102533.03
2023-01-25T15:01:55.556Z,102528.63
2023-01-25T15:07:01.134Z,102528.53
2023-01-25T15:12:29.170Z,102524.28
2023-01-25T15:17:44.451Z,102533.25
2023-01-25T15:22:47.198Z,102533.75
2023-01-25T15:27:50.298Z,102519.56
2023-01-25T15:32:54.674Z,102517.22
2023-01-25T15:37:57.502Z,102506.09
2023-01-25T15:43:00.235Z,102499.53
2023-01-25T15:48:04.525Z,102488.13
2023-01-25T15:53:07.421Z,102477.94
2023-01-25T15:58:14.012Z,102474.16
2023-01-25T16:03:21.357Z,102469.41
2023-01-25T16:08:24.181Z,102475.69
2023-01-25T16:13:26.980Z,102473.00
2023-01-25T16:18:31.105Z,102454.53
2023-01-25T16:23:34.151Z,102470.72
2023-01-25T16:28:36.961Z,102462.88
2023-01-25T16:33:41.498Z,102452.16
2023-01-25T16:38:44.803Z,102460.25
2023-01-25T16:43:49.703Z,102454.44
2023-01-25T16:48:54.052Z,102447.81
2023-01-25T16:53:58.996Z,102453.34
2023-01-25T16:59:04.170Z,102439.81
2023-01-25T17:04:09.043Z,102456.88
2023-01-25T17:09:22.878Z,102457.72
2023-01-25T17:14:27.078Z,102446.63
2023-01-25T17:19:31.448Z,102442.88
2023-01-25T17:24:35.836Z,102442.94
2023-01-25T17:29:38.573Z,102436.31
2023-01-25T17:34:42.756Z,102425.50
2023-01-25T17:39:45.477Z,102411.91
2023-01-25T17:44:48.203Z,102418.47
2023-01-25T17:49:52.606Z,102414.38
2023-01-25T17:54:55.394Z,102402.13
2023-01-25T17:59:58.159Z,102386.00
2023-01-25T18:05:02.314Z,102381.94
2023-01-25T18:10:06.007Z,102367.31
2023-01-25T18:15:09.835Z,102375.09
2023-01-25T18:20:14.789Z,102362.75
2023-01-25T18:25:31.872Z,102349.53
2023-01-25T18:30:36.859Z,102339.28
2023-01-25T18:35:43.205Z,102338.44
2023-01-25T18:40:46.028Z,102333.97
2023-01-25T18:45:56.224Z,102317.50
2023-01-25T18:51:01.459Z,102321.94
2023-01-25T18:56:07.273Z,102323.28
2023-01-25T19:01:13.092Z,102315.34
2023-01-25T19:06:18.627Z,102295.50
2023-01-25T19:11:22.750Z,102293.69
2023-01-25T19:16:25.673Z,102294.16
2023-01-25T19:21:30.228Z,102295.03
2023-01-25T19:26:33.091Z,102285.41
2023-01-25T19:31:37.303Z,102276.38
2023-01-25T19:36:45.838Z,102263.84
2023-01-25T19:41:49.132Z,102257.44
2023-01-25T19:46:52.064Z,102254.88
2023-01-25T19:51:57.535Z,102237.06
2023-01-25T19:57:00.711Z,102237.66
2023-01-25T20:02:04.074Z,102242.38
2023-01-25T20:07:08.285Z,102232.19
2023-01-25T20:12:11.192Z,102218.00
2023-01-25T20:17:14.408Z,102221.91
2023-01-25T20:22:19.385Z,102218.03
2023-01-25T20:27:22.221Z,102204.56
2023-01-25T20:32:32.673Z,102192.25
2023-01-25T20:37:37.889Z,102194.97
2023-01-25T20:42:40.723Z,102207.53
2023-01-25T20:47:48.159Z,102208.34
2023-01-25T20:53:41.564Z,102208.13
2023-01-25T20:58:53.359Z,102205.34
2023-01-25T21:04:27.108Z,102200.78
2023-01-25T21:09:38.153Z,102192.16
2023-01-25T21:14:50.236Z,102198.34
2023-01-25T21:31:33.159Z,102188.69
2023-01-25T21:37:10.652Z,102178.53
2023-01-25T21:42:23.841Z,102177.22
2023-01-25T21:47:49.485Z,102181.19
2023-01-25T21:52:55.032Z,102165.66
2023-01-25T21:57:58.391Z,102160.56
2023-01-25T22:03:02.567Z,102168.19
2023-01-25T22:08:05.681Z,102152.72
2023-01-25T22:13:08.467Z,102144.78
2023-01-25T22:18:12.519Z,102153.84
2023-01-25T22:23:15.335Z,102138.56
2023-01-25T22:28:20.687Z,102125.84
2023-01-25T22:33:24.884Z,102140.41
2023-01-25T22:38:27.690Z,102136.41
2023-01-25T22:43:30.443Z,102118.44
2023-01-25T22:48:35.822Z,102125.94
2023-01-25T22:53:38.529Z,102127.69
2023-01-25T22:58:43.751Z,102113.56
2023-01-25T23:03:48.936Z,102122.28
2023-01-25T23:08:52.151Z,102117.28
2023-01-25T23:14:12.477Z,102118.31
2023-01-25T23:19:17.231Z,102104.72
2023-01-25T23:24:20.161Z,102108.44
2023-01-25T23:29:22.912Z,102092.03
2023-01-25T23:34:27.308Z,102087.66
2023-01-25T23:39:30.278Z,102087.66
2023-01-25T23:44:33.042Z,102073.34
2023-01-25T23:49:37.153Z,102069.56
2023-01-25T23:54:39.889Z,102063.78
2023-01-25T23:59:42.938Z,102067.22
